KPRC/PRC METAR and TAF weather

Enter ICAO airport designator
Station Type Date Time Source
KPRC METAR 2022/07/03 13:53 UTC NOAA

KPRC 031353Z 21005KT 10SM FEW080 22/06 A3008 RMK AO2 SLP094 T02170056


Station Type Date Time Source
KPRC Decoded METAR 2022/07/03 13:53 UTC NOAA

PRESCOTT LOVE FIELD, AZ, United States (KPRC) 34-39N 112-25W 1524M
Jul 03, 2022 - 09:53 AM EDT / 2022.07.03 1353 UTC
Wind: from the SSW (210 degrees) at 6 MPH (5 KT):0
Visibility: 10 mile(s):0
Sky conditions: mostly clear
Temperature: 71.1 F (21.7 C)
Dew Point: 42.1 F (5.6 C)
Relative Humidity: 35%
Pressure (altimeter): 30.08 in. Hg (1018 hPa)
ob: KPRC 031353Z 21005KT 10SM FEW080 22/06 A3008 RMK AO2 SLP094 T02170056
cycle: 14

Station Type Date Time Source
KPRC TAF 2022/07/03 12:22 UTC NOAA

TAF KPRC 031120Z 0312/0412 VRB05KT P6SM SKC
FM031800 20014G25KT P6SM SKC
FM040300 21008KT P6SM FEW140 FEW250

Example: see airport list